sensor_id;sensor_type;location;lat;lon;timestamp;P1;durP1;ratioP1;P2;durP2;ratioP2
16699;SDS011;8466;52.286;21.124;2024-02-16T00:00:25;22.80;;;16.40;;
16699;SDS011;8466;52.286;21.124;2024-02-16T00:02:54;22.07;;;16.80;;
16699;SDS011;8466;52.286;21.124;2024-02-16T00:05:23;21.20;;;15.97;;
16699;SDS011;8466;52.286;21.124;2024-02-16T00:07:51;22.43;;;16.90;;
16699;SDS011;8466;52.286;21.124;2024-02-16T00:10:22;20.63;;;16.73;;
16699;SDS011;8466;52.286;21.124;2024-02-16T00:12:51;23.37;;;16.43;;
16699;SDS011;8466;52.286;21.124;2024-02-16T00:15:19;20.60;;;15.83;;
16699;SDS011;8466;52.286;21.124;2024-02-16T00:17:48;19.13;;;15.23;;
16699;SDS011;8466;52.286;21.124;2024-02-16T00:20:17;20.13;;;14.80;;
16699;SDS011;8466;52.286;21.124;2024-02-16T00:22:49;17.67;;;14.70;;
16699;SDS011;8466;52.286;21.124;2024-02-16T00:25:18;22.87;;;15.77;;
16699;SDS011;8466;52.286;21.124;2024-02-16T00:27:48;21.87;;;15.27;;
16699;SDS011;8466;52.286;21.124;2024-02-16T00:30:17;19.77;;;15.70;;
16699;SDS011;8466;52.286;21.124;2024-02-16T00:32:46;25.57;;;14.60;;
16699;SDS011;8466;52.286;21.124;2024-02-16T00:35:15;19.27;;;14.30;;
16699;SDS011;8466;52.286;21.124;2024-02-16T00:37:44;19.60;;;14.80;;
16699;SDS011;8466;52.286;21.124;2024-02-16T00:40:13;16.77;;;13.00;;
16699;SDS011;8466;52.286;21.124;2024-02-16T00:42:42;20.40;;;14.77;;
16699;SDS011;8466;52.286;21.124;2024-02-16T00:45:12;17.40;;;13.33;;
16699;SDS011;8466;52.286;21.124;2024-02-16T00:47:41;18.30;;;14.47;;
16699;SDS011;8466;52.286;21.124;2024-02-16T00:50:11;16.57;;;13.20;;
16699;SDS011;8466;52.286;21.124;2024-02-16T00:52:40;18.10;;;13.07;;
16699;SDS011;8466;52.286;21.124;2024-02-16T00:55:11;19.50;;;14.00;;
16699;SDS011;8466;52.286;21.124;2024-02-16T00:57:40;18.90;;;13.40;;
16699;SDS011;8466;52.286;21.124;2024-02-16T01:00:10;17.63;;;13.37;;
16699;SDS011;8466;52.286;21.124;2024-02-16T01:02:41;17.20;;;12.57;;
16699;SDS011;8466;52.286;21.124;2024-02-16T01:05:09;16.20;;;12.50;;
16699;SDS011;8466;52.286;21.124;2024-02-16T01:07:39;16.87;;;12.13;;
16699;SDS011;8466;52.286;21.124;2024-02-16T01:10:09;14.83;;;11.87;;
16699;SDS011;8466;52.286;21.124;2024-02-16T01:12:39;16.50;;;12.03;;
16699;SDS011;8466;52.286;21.124;2024-02-16T01:15:08;13.77;;;10.97;;
16699;SDS011;8466;52.286;21.124;2024-02-16T01:17:38;13.63;;;11.73;;
16699;SDS011;8466;52.286;21.124;2024-02-16T01:20:08;14.53;;;11.20;;
16699;SDS011;8466;52.286;21.124;2024-02-16T01:22:39;15.60;;;12.13;;
16699;SDS011;8466;52.286;21.124;2024-02-16T01:25:09;15.00;;;10.93;;
16699;SDS011;8466;52.286;21.124;2024-02-16T01:27:38;14.70;;;11.10;;
16699;SDS011;8466;52.286;21.124;2024-02-16T01:30:08;13.50;;;11.03;;
16699;SDS011;8466;52.286;21.124;2024-02-16T01:32:39;12.87;;;10.23;;
16699;SDS011;8466;52.286;21.124;2024-02-16T01:35:09;14.17;;;10.77;;
16699;SDS011;8466;52.286;21.124;2024-02-16T01:37:40;11.83;;;9.90;;
16699;SDS011;8466;52.286;21.124;2024-02-16T01:40:09;12.27;;;9.93;;
16699;SDS011;8466;52.286;21.124;2024-02-16T01:42:41;13.20;;;10.00;;
16699;SDS011;8466;52.286;21.124;2024-02-16T01:45:10;11.93;;;9.33;;
16699;SDS011;8466;52.286;21.124;2024-02-16T01:47:40;14.30;;;9.57;;
16699;SDS011;8466;52.286;21.124;2024-02-16T01:50:15;12.73;;;9.60;;
16699;SDS011;8466;52.286;21.124;2024-02-16T01:52:45;14.37;;;9.60;;
16699;SDS011;8466;52.286;21.124;2024-02-16T01:55:16;11.70;;;9.10;;
16699;SDS011;8466;52.286;21.124;2024-02-16T01:57:45;12.73;;;9.47;;
16699;SDS011;8466;52.286;21.124;2024-02-16T02:00:15;12.00;;;8.83;;
16699;SDS011;8466;52.286;21.124;2024-02-16T02:02:45;13.37;;;9.77;;
16699;SDS011;8466;52.286;21.124;2024-02-16T02:05:15;11.20;;;9.27;;
16699;SDS011;8466;52.286;21.124;2024-02-16T02:07:45;11.90;;;9.27;;
16699;SDS011;8466;52.286;21.124;2024-02-16T02:10:13;10.30;;;8.90;;
16699;SDS011;8466;52.286;21.124;2024-02-16T02:12:42;10.43;;;9.00;;
16699;SDS011;8466;52.286;21.124;2024-02-16T02:15:11;11.57;;;8.87;;
16699;SDS011;8466;52.286;21.124;2024-02-16T02:17:40;11.83;;;8.80;;
16699;SDS011;8466;52.286;21.124;2024-02-16T02:20:09;10.60;;;8.47;;
16699;SDS011;8466;52.286;21.124;2024-02-16T02:22:40;12.27;;;8.77;;
16699;SDS011;8466;52.286;21.124;2024-02-16T02:25:09;11.93;;;8.73;;
16699;SDS011;8466;52.286;21.124;2024-02-16T02:27:38;14.23;;;8.73;;
16699;SDS011;8466;52.286;21.124;2024-02-16T02:30:07;13.70;;;9.00;;
16699;SDS011;8466;52.286;21.124;2024-02-16T02:32:36;13.73;;;8.57;;
16699;SDS011;8466;52.286;21.124;2024-02-16T02:35:05;10.20;;;8.23;;
16699;SDS011;8466;52.286;21.124;2024-02-16T02:37:37;12.43;;;9.43;;
16699;SDS011;8466;52.286;21.124;2024-02-16T02:40:08;9.63;;;8.57;;
16699;SDS011;8466;52.286;21.124;2024-02-16T02:42:37;10.10;;;9.10;;
16699;SDS011;8466;52.286;21.124;2024-02-16T02:45:06;13.10;;;9.60;;
16699;SDS011;8466;52.286;21.124;2024-02-16T02:47:36;10.70;;;8.83;;
16699;SDS011;8466;52.286;21.124;2024-02-16T02:50:05;13.80;;;9.80;;
16699;SDS011;8466;52.286;21.124;2024-02-16T02:52:35;11.03;;;9.33;;
16699;SDS011;8466;52.286;21.124;2024-02-16T02:55:06;13.70;;;9.37;;
16699;SDS011;8466;52.286;21.124;2024-02-16T02:57:36;11.17;;;9.13;;
16699;SDS011;8466;52.286;21.124;2024-02-16T03:00:05;12.20;;;9.23;;
16699;SDS011;8466;52.286;21.124;2024-02-16T03:02:38;11.10;;;9.47;;
16699;SDS011;8466;52.286;21.124;2024-02-16T03:05:07;15.93;;;9.20;;
16699;SDS011;8466;52.286;21.124;2024-02-16T03:07:36;14.83;;;9.13;;
16699;SDS011;8466;52.286;21.124;2024-02-16T03:10:07;13.07;;;9.70;;
16699;SDS011;8466;52.286;21.124;2024-02-16T03:12:37;11.93;;;9.70;;
16699;SDS011;8466;52.286;21.124;2024-02-16T03:15:06;13.87;;;9.60;;
16699;SDS011;8466;52.286;21.124;2024-02-16T03:17:36;15.57;;;9.07;;
16699;SDS011;8466;52.286;21.124;2024-02-16T03:20:05;12.87;;;9.80;;
16699;SDS011;8466;52.286;21.124;2024-02-16T03:22:35;12.23;;;9.17;;
16699;SDS011;8466;52.286;21.124;2024-02-16T03:25:04;11.83;;;9.70;;
16699;SDS011;8466;52.286;21.124;2024-02-16T03:27:34;14.13;;;9.73;;
16699;SDS011;8466;52.286;21.124;2024-02-16T03:30:04;11.20;;;9.63;;
16699;SDS011;8466;52.286;21.124;2024-02-16T03:32:34;12.43;;;9.87;;
16699;SDS011;8466;52.286;21.124;2024-02-16T03:35:03;12.07;;;9.60;;
16699;SDS011;8466;52.286;21.124;2024-02-16T03:37:32;13.27;;;10.17;;
16699;SDS011;8466;52.286;21.124;2024-02-16T03:40:01;12.13;;;9.80;;
16699;SDS011;8466;52.286;21.124;2024-02-16T03:42:33;12.87;;;10.23;;
16699;SDS011;8466;52.286;21.124;2024-02-16T03:45:03;12.97;;;9.80;;
16699;SDS011;8466;52.286;21.124;2024-02-16T03:47:34;13.27;;;9.53;;
16699;SDS011;8466;52.286;21.124;2024-02-16T03:50:03;12.10;;;9.20;;
16699;SDS011;8466;52.286;21.124;2024-02-16T03:52:33;13.00;;;9.57;;
16699;SDS011;8466;52.286;21.124;2024-02-16T03:55:02;12.90;;;9.30;;
16699;SDS011;8466;52.286;21.124;2024-02-16T03:57:32;12.90;;;9.70;;
16699;SDS011;8466;52.286;21.124;2024-02-16T04:00:02;14.47;;;10.40;;
16699;SDS011;8466;52.286;21.124;2024-02-16T04:02:32;11.83;;;9.17;;
16699;SDS011;8466;52.286;21.124;2024-02-16T04:05:03;13.63;;;10.07;;
16699;SDS011;8466;52.286;21.124;2024-02-16T04:07:32;13.03;;;9.70;;
16699;SDS011;8466;52.286;21.124;2024-02-16T04:10:00;12.50;;;9.50;;
16699;SDS011;8466;52.286;21.124;2024-02-16T04:12:29;15.57;;;9.97;;
16699;SDS011;8466;52.286;21.124;2024-02-16T04:14:58;10.03;;;8.63;;
16699;SDS011;8466;52.286;21.124;2024-02-16T04:17:29;11.97;;;9.13;;
16699;SDS011;8466;52.286;21.124;2024-02-16T04:19:57;13.47;;;10.60;;
16699;SDS011;8466;52.286;21.124;2024-02-16T04:22:26;16.10;;;9.83;;
16699;SDS011;8466;52.286;21.124;2024-02-16T04:24:55;16.43;;;11.20;;
16699;SDS011;8466;52.286;21.124;2024-02-16T04:27:23;20.47;;;14.57;;
16699;SDS011;8466;52.286;21.124;2024-02-16T04:29:52;15.63;;;11.73;;
16699;SDS011;8466;52.286;21.124;2024-02-16T04:32:21;14.07;;;10.37;;
16699;SDS011;8466;52.286;21.124;2024-02-16T04:34:53;13.90;;;10.27;;
16699;SDS011;8466;52.286;21.124;2024-02-16T04:37:23;15.07;;;9.97;;
16699;SDS011;8466;52.286;21.124;2024-02-16T04:39:51;14.00;;;9.63;;
16699;SDS011;8466;52.286;21.124;2024-02-16T04:42:20;13.13;;;10.33;;
16699;SDS011;8466;52.286;21.124;2024-02-16T04:44:49;13.87;;;10.30;;
16699;SDS011;8466;52.286;21.124;2024-02-16T04:47:18;11.97;;;10.17;;
16699;SDS011;8466;52.286;21.124;2024-02-16T04:49:46;13.37;;;9.90;;
16699;SDS011;8466;52.286;21.124;2024-02-16T04:52:16;13.10;;;10.03;;
16699;SDS011;8466;52.286;21.124;2024-02-16T04:54:45;12.67;;;9.73;;
16699;SDS011;8466;52.286;21.124;2024-02-16T04:57:14;13.70;;;9.77;;
16699;SDS011;8466;52.286;21.124;2024-02-16T04:59:42;14.87;;;9.80;;
16699;SDS011;8466;52.286;21.124;2024-02-16T05:02:11;14.30;;;10.20;;
16699;SDS011;8466;52.286;21.124;2024-02-16T05:04:40;12.93;;;9.90;;
16699;SDS011;8466;52.286;21.124;2024-02-16T05:07:09;14.27;;;9.80;;
16699;SDS011;8466;52.286;21.124;2024-02-16T05:09:39;13.87;;;9.83;;
16699;SDS011;8466;52.286;21.124;2024-02-16T05:12:08;13.63;;;10.70;;
16699;SDS011;8466;52.286;21.124;2024-02-16T05:14:36;14.70;;;9.97;;
16699;SDS011;8466;52.286;21.124;2024-02-16T05:17:05;16.03;;;10.53;;
16699;SDS011;8466;52.286;21.124;2024-02-16T05:19:34;16.13;;;10.53;;
16699;SDS011;8466;52.286;21.124;2024-02-16T05:22:03;15.00;;;10.80;;
16699;SDS011;8466;52.286;21.124;2024-02-16T05:24:32;19.00;;;10.93;;
16699;SDS011;8466;52.286;21.124;2024-02-16T05:27:02;17.27;;;10.57;;
16699;SDS011;8466;52.286;21.124;2024-02-16T05:29:31;14.27;;;10.20;;
16699;SDS011;8466;52.286;21.124;2024-02-16T05:32:00;13.60;;;10.70;;
16699;SDS011;8466;52.286;21.124;2024-02-16T05:34:28;13.97;;;10.43;;
16699;SDS011;8466;52.286;21.124;2024-02-16T05:37:04;14.87;;;10.40;;
16699;SDS011;8466;52.286;21.124;2024-02-16T05:39:36;14.67;;;11.33;;
16699;SDS011;8466;52.286;21.124;2024-02-16T05:42:22;16.43;;;11.10;;
16699;SDS011;8466;52.286;21.124;2024-02-16T05:44:51;18.67;;;12.50;;
16699;SDS011;8466;52.286;21.124;2024-02-16T05:47:20;18.00;;;12.70;;
16699;SDS011;8466;52.286;21.124;2024-02-16T05:49:49;16.63;;;12.03;;
16699;SDS011;8466;52.286;21.124;2024-02-16T05:52:18;15.43;;;12.50;;
16699;SDS011;8466;52.286;21.124;2024-02-16T05:54:47;17.50;;;11.93;;
16699;SDS011;8466;52.286;21.124;2024-02-16T05:57:16;18.17;;;11.60;;
16699;SDS011;8466;52.286;21.124;2024-02-16T05:59:47;16.03;;;12.23;;
16699;SDS011;8466;52.286;21.124;2024-02-16T06:02:18;20.70;;;12.10;;
16699;SDS011;8466;52.286;21.124;2024-02-16T06:04:47;19.23;;;12.27;;
16699;SDS011;8466;52.286;21.124;2024-02-16T06:07:16;18.03;;;12.53;;
16699;SDS011;8466;52.286;21.124;2024-02-16T06:09:45;24.23;;;13.43;;
16699;SDS011;8466;52.286;21.124;2024-02-16T06:12:14;22.80;;;13.00;;
16699;SDS011;8466;52.286;21.124;2024-02-16T06:14:42;23.03;;;13.77;;
16699;SDS011;8466;52.286;21.124;2024-02-16T06:17:12;21.50;;;12.93;;
16699;SDS011;8466;52.286;21.124;2024-02-16T06:19:41;18.33;;;13.17;;
16699;SDS011;8466;52.286;21.124;2024-02-16T06:22:10;23.70;;;14.20;;
16699;SDS011;8466;52.286;21.124;2024-02-16T06:24:39;27.57;;;14.33;;
16699;SDS011;8466;52.286;21.124;2024-02-16T06:27:08;21.50;;;13.07;;
16699;SDS011;8466;52.286;21.124;2024-02-16T06:29:37;21.87;;;13.83;;
16699;SDS011;8466;52.286;21.124;2024-02-16T06:32:06;20.90;;;12.43;;
16699;SDS011;8466;52.286;21.124;2024-02-16T06:34:36;18.97;;;12.00;;
16699;SDS011;8466;52.286;21.124;2024-02-16T06:37:05;21.93;;;12.13;;
16699;SDS011;8466;52.286;21.124;2024-02-16T06:39:34;18.90;;;12.53;;
16699;SDS011;8466;52.286;21.124;2024-02-16T06:42:03;20.33;;;12.93;;
16699;SDS011;8466;52.286;21.124;2024-02-16T06:44:32;19.17;;;13.10;;
16699;SDS011;8466;52.286;21.124;2024-02-16T06:47:01;19.40;;;12.83;;
16699;SDS011;8466;52.286;21.124;2024-02-16T06:49:30;18.53;;;12.97;;
16699;SDS011;8466;52.286;21.124;2024-02-16T06:52:00;17.63;;;12.60;;
16699;SDS011;8466;52.286;21.124;2024-02-16T06:54:29;15.80;;;12.07;;
16699;SDS011;8466;52.286;21.124;2024-02-16T06:56:58;16.57;;;11.33;;
16699;SDS011;8466;52.286;21.124;2024-02-16T06:59:27;16.50;;;11.57;;
16699;SDS011;8466;52.286;21.124;2024-02-16T07:01:56;18.60;;;12.47;;
16699;SDS011;8466;52.286;21.124;2024-02-16T07:04:25;17.93;;;11.90;;
16699;SDS011;8466;52.286;21.124;2024-02-16T07:06:54;19.20;;;11.83;;
16699;SDS011;8466;52.286;21.124;2024-02-16T07:09:24;16.70;;;11.53;;
16699;SDS011;8466;52.286;21.124;2024-02-16T07:11:53;14.80;;;11.83;;
16699;SDS011;8466;52.286;21.124;2024-02-16T07:14:21;16.40;;;11.43;;
16699;SDS011;8466;52.286;21.124;2024-02-16T07:16:50;14.23;;;10.90;;
16699;SDS011;8466;52.286;21.124;2024-02-16T07:19:19;16.07;;;10.83;;
16699;SDS011;8466;52.286;21.124;2024-02-16T07:21:47;17.13;;;11.80;;
16699;SDS011;8466;52.286;21.124;2024-02-16T07:24:16;16.97;;;11.53;;
16699;SDS011;8466;52.286;21.124;2024-02-16T07:26:47;18.17;;;11.93;;
16699;SDS011;8466;52.286;21.124;2024-02-16T07:29:15;15.20;;;11.83;;
16699;SDS011;8466;52.286;21.124;2024-02-16T07:31:44;15.00;;;11.20;;
16699;SDS011;8466;52.286;21.124;2024-02-16T07:34:13;15.17;;;11.57;;
16699;SDS011;8466;52.286;21.124;2024-02-16T07:36:41;18.10;;;11.13;;
16699;SDS011;8466;52.286;21.124;2024-02-16T07:39:10;15.70;;;11.20;;
16699;SDS011;8466;52.286;21.124;2024-02-16T07:41:39;13.60;;;10.43;;
16699;SDS011;8466;52.286;21.124;2024-02-16T07:44:10;17.37;;;11.47;;
16699;SDS011;8466;52.286;21.124;2024-02-16T07:46:41;14.17;;;10.67;;
16699;SDS011;8466;52.286;21.124;2024-02-16T07:49:10;21.50;;;11.57;;
16699;SDS011;8466;52.286;21.124;2024-02-16T07:51:39;14.10;;;11.00;;
16699;SDS011;8466;52.286;21.124;2024-02-16T07:54:08;13.67;;;10.77;;
16699;SDS011;8466;52.286;21.124;2024-02-16T07:56:37;13.93;;;10.03;;
16699;SDS011;8466;52.286;21.124;2024-02-16T07:59:05;15.97;;;11.20;;
16699;SDS011;8466;52.286;21.124;2024-02-16T08:01:36;16.13;;;10.97;;
16699;SDS011;8466;52.286;21.124;2024-02-16T08:04:05;17.17;;;9.50;;
16699;SDS011;8466;52.286;21.124;2024-02-16T08:06:34;15.03;;;10.30;;
16699;SDS011;8466;52.286;21.124;2024-02-16T08:09:03;14.27;;;10.00;;
16699;SDS011;8466;52.286;21.124;2024-02-16T08:11:33;13.73;;;10.97;;
16699;SDS011;8466;52.286;21.124;2024-02-16T08:14:01;15.17;;;10.23;;
16699;SDS011;8466;52.286;21.124;2024-02-16T08:16:30;16.00;;;10.23;;
16699;SDS011;8466;52.286;21.124;2024-02-16T08:19:00;16.10;;;10.90;;
16699;SDS011;8466;52.286;21.124;2024-02-16T08:21:29;14.60;;;11.37;;
16699;SDS011;8466;52.286;21.124;2024-02-16T08:23:58;13.67;;;9.70;;
16699;SDS011;8466;52.286;21.124;2024-02-16T08:26:27;17.23;;;10.40;;
16699;SDS011;8466;52.286;21.124;2024-02-16T08:28:55;14.30;;;11.00;;
16699;SDS011;8466;52.286;21.124;2024-02-16T08:31:24;12.83;;;10.30;;
16699;SDS011;8466;52.286;21.124;2024-02-16T08:33:53;15.87;;;10.50;;
16699;SDS011;8466;52.286;21.124;2024-02-16T08:36:27;11.90;;;10.10;;
16699;SDS011;8466;52.286;21.124;2024-02-16T08:38:57;15.50;;;10.87;;
16699;SDS011;8466;52.286;21.124;2024-02-16T08:41:28;12.67;;;10.30;;
16699;SDS011;8466;52.286;21.124;2024-02-16T08:43:57;16.97;;;10.90;;
16699;SDS011;8466;52.286;21.124;2024-02-16T08:46:25;14.80;;;10.73;;
16699;SDS011;8466;52.286;21.124;2024-02-16T08:48:54;19.07;;;10.60;;
16699;SDS011;8466;52.286;21.124;2024-02-16T08:51:23;12.53;;;10.27;;
16699;SDS011;8466;52.286;21.124;2024-02-16T08:53:55;17.40;;;10.30;;
16699;SDS011;8466;52.286;21.124;2024-02-16T08:56:24;17.90;;;10.57;;
16699;SDS011;8466;52.286;21.124;2024-02-16T08:58:53;15.73;;;9.97;;
16699;SDS011;8466;52.286;21.124;2024-02-16T09:01:29;14.30;;;9.50;;
16699;SDS011;8466;52.286;21.124;2024-02-16T09:03:58;17.57;;;10.50;;
16699;SDS011;8466;52.286;21.124;2024-02-16T09:06:28;17.60;;;10.30;;
16699;SDS011;8466;52.286;21.124;2024-02-16T09:08:58;12.67;;;10.23;;
16699;SDS011;8466;52.286;21.124;2024-02-16T09:11:27;15.37;;;10.43;;
16699;SDS011;8466;52.286;21.124;2024-02-16T09:13:56;12.67;;;9.60;;
16699;SDS011;8466;52.286;21.124;2024-02-16T09:16:24;14.00;;;8.90;;
16699;SDS011;8466;52.286;21.124;2024-02-16T09:18:53;11.83;;;9.17;;
16699;SDS011;8466;52.286;21.124;2024-02-16T09:21:22;11.70;;;9.10;;
16699;SDS011;8466;52.286;21.124;2024-02-16T09:23:53;13.27;;;9.43;;
16699;SDS011;8466;52.286;21.124;2024-02-16T09:26:26;15.83;;;9.23;;
16699;SDS011;8466;52.286;21.124;2024-02-16T09:28:56;13.67;;;9.43;;
16699;SDS011;8466;52.286;21.124;2024-02-16T09:31:25;12.10;;;9.10;;
16699;SDS011;8466;52.286;21.124;2024-02-16T09:33:54;10.57;;;8.37;;
16699;SDS011;8466;52.286;21.124;2024-02-16T09:36:23;13.07;;;9.00;;
16699;SDS011;8466;52.286;21.124;2024-02-16T09:38:52;10.07;;;8.17;;
16699;SDS011;8466;52.286;21.124;2024-02-16T09:41:20;10.50;;;7.80;;
16699;SDS011;8466;52.286;21.124;2024-02-16T09:43:51;9.63;;;7.80;;
16699;SDS011;8466;52.286;21.124;2024-02-16T09:46:21;9.33;;;7.70;;
16699;SDS011;8466;52.286;21.124;2024-02-16T09:48:51;12.53;;;8.10;;
16699;SDS011;8466;52.286;21.124;2024-02-16T09:51:21;9.73;;;7.70;;
16699;SDS011;8466;52.286;21.124;2024-02-16T09:53:50;12.23;;;7.53;;
16699;SDS011;8466;52.286;21.124;2024-02-16T09:56:25;10.33;;;7.33;;
16699;SDS011;8466;52.286;21.124;2024-02-16T09:58:55;10.77;;;6.93;;
16699;SDS011;8466;52.286;21.124;2024-02-16T10:01:24;8.10;;;7.23;;
16699;SDS011;8466;52.286;21.124;2024-02-16T10:03:52;10.93;;;7.13;;
16699;SDS011;8466;52.286;21.124;2024-02-16T10:06:21;8.50;;;7.30;;
16699;SDS011;8466;52.286;21.124;2024-02-16T10:08:51;11.63;;;7.57;;
16699;SDS011;8466;52.286;21.124;2024-02-16T10:11:21;10.33;;;6.67;;
16699;SDS011;8466;52.286;21.124;2024-02-16T10:14:09;10.37;;;7.33;;
16699;SDS011;8466;52.286;21.124;2024-02-16T10:16:38;11.90;;;7.47;;
16699;SDS011;8466;52.286;21.124;2024-02-16T10:19:07;11.30;;;7.50;;
16699;SDS011;8466;52.286;21.124;2024-02-16T10:21:42;10.50;;;7.70;;
16699;SDS011;8466;52.286;21.124;2024-02-16T10:24:11;12.50;;;8.33;;
16699;SDS011;8466;52.286;21.124;2024-02-16T10:26:41;9.37;;;8.00;;
16699;SDS011;8466;52.286;21.124;2024-02-16T10:29:11;10.03;;;7.03;;
16699;SDS011;8466;52.286;21.124;2024-02-16T10:31:41;8.67;;;7.40;;
16699;SDS011;8466;52.286;21.124;2024-02-16T10:34:10;9.87;;;6.70;;
16699;SDS011;8466;52.286;21.124;2024-02-16T10:36:39;9.30;;;7.60;;
16699;SDS011;8466;52.286;21.124;2024-02-16T10:39:09;7.93;;;6.43;;
16699;SDS011;8466;52.286;21.124;2024-02-16T10:41:38;9.30;;;6.53;;
16699;SDS011;8466;52.286;21.124;2024-02-16T10:44:09;8.63;;;7.00;;
16699;SDS011;8466;52.286;21.124;2024-02-16T10:46:39;7.50;;;6.70;;
16699;SDS011;8466;52.286;21.124;2024-02-16T10:49:08;9.03;;;6.50;;
16699;SDS011;8466;52.286;21.124;2024-02-16T10:51:37;8.07;;;6.30;;
16699;SDS011;8466;52.286;21.124;2024-02-16T10:54:10;11.70;;;7.27;;
16699;SDS011;8466;52.286;21.124;2024-02-16T10:56:42;10.97;;;6.77;;
16699;SDS011;8466;52.286;21.124;2024-02-16T10:59:12;10.83;;;7.20;;
16699;SDS011;8466;52.286;21.124;2024-02-16T11:01:41;8.83;;;6.60;;
16699;SDS011;8466;52.286;21.124;2024-02-16T11:04:12;9.73;;;6.63;;
16699;SDS011;8466;52.286;21.124;2024-02-16T11:07:00;10.30;;;7.13;;
16699;SDS011;8466;52.286;21.124;2024-02-16T11:09:33;9.20;;;6.87;;
16699;SDS011;8466;52.286;21.124;2024-02-16T11:12:04;9.03;;;7.20;;
16699;SDS011;8466;52.286;21.124;2024-02-16T11:14:36;12.07;;;7.43;;
16699;SDS011;8466;52.286;21.124;2024-02-16T11:17:09;11.07;;;7.50;;
16699;SDS011;8466;52.286;21.124;2024-02-16T11:19:40;7.57;;;6.77;;
16699;SDS011;8466;52.286;21.124;2024-02-16T11:22:09;10.30;;;7.70;;
16699;SDS011;8466;52.286;21.124;2024-02-16T11:24:42;11.93;;;8.07;;
16699;SDS011;8466;52.286;21.124;2024-02-16T11:27:12;11.93;;;7.53;;
16699;SDS011;8466;52.286;21.124;2024-02-16T11:29:43;13.07;;;7.30;;
16699;SDS011;8466;52.286;21.124;2024-02-16T11:32:13;9.73;;;8.07;;
16699;SDS011;8466;52.286;21.124;2024-02-16T11:34:41;13.37;;;8.93;;
16699;SDS011;8466;52.286;21.124;2024-02-16T11:37:12;13.80;;;8.27;;
16699;SDS011;8466;52.286;21.124;2024-02-16T11:39:41;10.20;;;7.50;;
16699;SDS011;8466;52.286;21.124;2024-02-16T11:42:12;15.43;;;13.03;;
16699;SDS011;8466;52.286;21.124;2024-02-16T11:44:51;12.70;;;9.93;;
16699;SDS011;8466;52.286;21.124;2024-02-16T11:47:23;15.67;;;11.20;;
16699;SDS011;8466;52.286;21.124;2024-02-16T11:50:02;54.30;;;33.13;;
16699;SDS011;8466;52.286;21.124;2024-02-16T11:52:32;14.77;;;11.53;;
16699;SDS011;8466;52.286;21.124;2024-02-16T11:55:02;13.30;;;10.33;;
16699;SDS011;8466;52.286;21.124;2024-02-16T11:57:31;21.73;;;17.40;;
16699;SDS011;8466;52.286;21.124;2024-02-16T12:00:02;12.07;;;8.10;;
16699;SDS011;8466;52.286;21.124;2024-02-16T12:02:35;13.97;;;11.00;;
16699;SDS011;8466;52.286;21.124;2024-02-16T12:05:04;12.83;;;9.27;;
16699;SDS011;8466;52.286;21.124;2024-02-16T12:07:36;11.07;;;8.83;;
16699;SDS011;8466;52.286;21.124;2024-02-16T12:10:07;11.83;;;8.87;;
16699;SDS011;8466;52.286;21.124;2024-02-16T12:12:37;12.40;;;9.23;;
16699;SDS011;8466;52.286;21.124;2024-02-16T12:15:08;9.57;;;8.30;;
16699;SDS011;8466;52.286;21.124;2024-02-16T12:17:40;9.70;;;8.53;;
16699;SDS011;8466;52.286;21.124;2024-02-16T12:20:12;12.07;;;10.47;;
16699;SDS011;8466;52.286;21.124;2024-02-16T12:22:42;14.67;;;10.00;;
16699;SDS011;8466;52.286;21.124;2024-02-16T12:25:10;11.83;;;9.03;;
16699;SDS011;8466;52.286;21.124;2024-02-16T12:27:39;12.93;;;9.20;;
16699;SDS011;8466;52.286;21.124;2024-02-16T12:30:10;10.90;;;9.10;;
16699;SDS011;8466;52.286;21.124;2024-02-16T12:32:40;11.23;;;7.90;;
16699;SDS011;8466;52.286;21.124;2024-02-16T12:35:09;10.30;;;9.20;;
16699;SDS011;8466;52.286;21.124;2024-02-16T12:37:38;11.07;;;8.23;;
16699;SDS011;8466;52.286;21.124;2024-02-16T12:40:07;11.03;;;8.87;;
16699;SDS011;8466;52.286;21.124;2024-02-16T12:42:36;10.20;;;8.00;;
16699;SDS011;8466;52.286;21.124;2024-02-16T12:45:06;10.53;;;7.70;;
16699;SDS011;8466;52.286;21.124;2024-02-16T12:47:36;8.57;;;7.10;;
16699;SDS011;8466;52.286;21.124;2024-02-16T12:50:05;10.67;;;8.20;;
16699;SDS011;8466;52.286;21.124;2024-02-16T12:52:34;11.13;;;7.73;;
16699;SDS011;8466;52.286;21.124;2024-02-16T12:55:16;11.03;;;7.97;;
16699;SDS011;8466;52.286;21.124;2024-02-16T12:57:45;9.67;;;7.43;;
16699;SDS011;8466;52.286;21.124;2024-02-16T13:00:14;9.57;;;8.13;;
16699;SDS011;8466;52.286;21.124;2024-02-16T13:02:44;9.77;;;8.30;;
16699;SDS011;8466;52.286;21.124;2024-02-16T13:05:14;12.37;;;8.40;;
16699;SDS011;8466;52.286;21.124;2024-02-16T13:07:43;8.43;;;7.13;;
16699;SDS011;8466;52.286;21.124;2024-02-16T13:10:12;8.43;;;7.63;;
16699;SDS011;8466;52.286;21.124;2024-02-16T13:12:41;10.20;;;8.07;;
16699;SDS011;8466;52.286;21.124;2024-02-16T13:15:10;11.87;;;9.13;;
16699;SDS011;8466;52.286;21.124;2024-02-16T13:17:55;11.20;;;7.90;;
16699;SDS011;8466;52.286;21.124;2024-02-16T13:20:24;10.67;;;8.10;;
16699;SDS011;8466;52.286;21.124;2024-02-16T13:22:53;10.03;;;8.40;;
16699;SDS011;8466;52.286;21.124;2024-02-16T13:25:21;12.13;;;9.43;;
16699;SDS011;8466;52.286;21.124;2024-02-16T13:27:50;12.30;;;9.10;;
16699;SDS011;8466;52.286;21.124;2024-02-16T13:30:19;9.23;;;8.13;;
16699;SDS011;8466;52.286;21.124;2024-02-16T13:32:47;9.53;;;8.17;;
16699;SDS011;8466;52.286;21.124;2024-02-16T13:35:18;11.33;;;8.77;;
16699;SDS011;8466;52.286;21.124;2024-02-16T13:37:47;11.20;;;8.30;;
16699;SDS011;8466;52.286;21.124;2024-02-16T13:40:16;8.63;;;7.73;;
16699;SDS011;8466;52.286;21.124;2024-02-16T13:42:45;12.13;;;8.50;;
16699;SDS011;8466;52.286;21.124;2024-02-16T13:45:14;11.00;;;8.07;;
16699;SDS011;8466;52.286;21.124;2024-02-16T13:47:45;10.20;;;7.27;;
16699;SDS011;8466;52.286;21.124;2024-02-16T13:50:14;9.07;;;7.27;;
16699;SDS011;8466;52.286;21.124;2024-02-16T13:52:44;11.30;;;7.60;;
16699;SDS011;8466;52.286;21.124;2024-02-16T13:55:13;11.33;;;7.13;;
16699;SDS011;8466;52.286;21.124;2024-02-16T13:57:42;7.87;;;6.87;;
16699;SDS011;8466;52.286;21.124;2024-02-16T14:00:11;12.23;;;8.50;;
16699;SDS011;8466;52.286;21.124;2024-02-16T14:02:43;8.43;;;7.00;;
16699;SDS011;8466;52.286;21.124;2024-02-16T14:05:12;12.23;;;7.97;;
16699;SDS011;8466;52.286;21.124;2024-02-16T14:07:41;9.87;;;7.33;;
16699;SDS011;8466;52.286;21.124;2024-02-16T14:10:24;11.17;;;8.47;;
16699;SDS011;8466;52.286;21.124;2024-02-16T14:12:53;9.77;;;7.53;;
16699;SDS011;8466;52.286;21.124;2024-02-16T14:15:22;10.37;;;7.90;;
16699;SDS011;8466;52.286;21.124;2024-02-16T14:17:53;9.33;;;7.10;;
16699;SDS011;8466;52.286;21.124;2024-02-16T14:20:22;12.50;;;7.73;;
16699;SDS011;8466;52.286;21.124;2024-02-16T14:22:51;7.87;;;6.80;;
16699;SDS011;8466;52.286;21.124;2024-02-16T14:25:20;9.67;;;7.27;;
16699;SDS011;8466;52.286;21.124;2024-02-16T14:27:52;13.90;;;7.73;;
16699;SDS011;8466;52.286;21.124;2024-02-16T14:30:21;12.43;;;6.93;;
16699;SDS011;8466;52.286;21.124;2024-02-16T14:32:50;9.80;;;7.20;;
16699;SDS011;8466;52.286;21.124;2024-02-16T14:35:20;8.10;;;6.70;;
16699;SDS011;8466;52.286;21.124;2024-02-16T14:37:50;8.10;;;7.00;;
16699;SDS011;8466;52.286;21.124;2024-02-16T14:40:18;9.60;;;7.00;;
16699;SDS011;8466;52.286;21.124;2024-02-16T14:42:47;10.90;;;9.67;;
16699;SDS011;8466;52.286;21.124;2024-02-16T14:45:17;11.40;;;9.07;;